sensor_id;sensor_type;location;lat;lon;timestamp;temperature;humidity
13817;DHT22;6979;52.116;5.286;2023-04-03T00:01:42;9.00;99.90
13817;DHT22;6979;52.116;5.286;2023-04-03T00:04:09;9.00;99.90
13817;DHT22;6979;52.116;5.286;2023-04-03T00:06:36;8.90;99.90
13817;DHT22;6979;52.116;5.286;2023-04-03T00:09:03;8.90;99.90
13817;DHT22;6979;52.116;5.286;2023-04-03T00:11:29;8.90;99.90
13817;DHT22;6979;52.116;5.286;2023-04-03T00:13:56;8.90;99.90
13817;DHT22;6979;52.116;5.286;2023-04-03T00:16:25;8.80;99.90
13817;DHT22;6979;52.116;5.286;2023-04-03T00:18:51;8.80;99.90
13817;DHT22;6979;52.116;5.286;2023-04-03T00:21:18;8.80;99.90
13817;DHT22;6979;52.116;5.286;2023-04-03T00:23:45;8.80;99.90
13817;DHT22;6979;52.116;5.286;2023-04-03T00:26:12;8.80;99.90
13817;DHT22;6979;52.116;5.286;2023-04-03T00:28:40;8.70;99.90
13817;DHT22;6979;52.116;5.286;2023-04-03T00:31:07;8.70;99.90
13817;DHT22;6979;52.116;5.286;2023-04-03T00:33:36;8.70;99.90
13817;DHT22;6979;52.116;5.286;2023-04-03T00:36:06;8.70;99.90
13817;DHT22;6979;52.116;5.286;2023-04-03T00:38:33;8.60;99.90
13817;DHT22;6979;52.116;5.286;2023-04-03T00:41:03;8.60;99.90
13817;DHT22;6979;52.116;5.286;2023-04-03T00:43:30;8.60;99.90
13817;DHT22;6979;52.116;5.286;2023-04-03T00:45:58;8.60;99.90
13817;DHT22;6979;52.116;5.286;2023-04-03T00:48:29;8.50;99.90
13817;DHT22;6979;52.116;5.286;2023-04-03T00:50:59;8.50;99.90
13817;DHT22;6979;52.116;5.286;2023-04-03T00:53:29;8.50;99.90
13817;DHT22;6979;52.116;5.286;2023-04-03T00:55:58;8.50;99.90
13817;DHT22;6979;52.116;5.286;2023-04-03T00:58:28;8.50;99.90
13817;DHT22;6979;52.116;5.286;2023-04-03T01:00:58;8.40;99.90
13817;DHT22;6979;52.116;5.286;2023-04-03T01:03:25;8.40;99.90
13817;DHT22;6979;52.116;5.286;2023-04-03T01:05:53;8.40;99.90
13817;DHT22;6979;52.116;5.286;2023-04-03T01:08:22;8.30;99.90
13817;DHT22;6979;52.116;5.286;2023-04-03T01:10:49;8.30;99.90
13817;DHT22;6979;52.116;5.286;2023-04-03T01:13:23;8.30;99.90
13817;DHT22;6979;52.116;5.286;2023-04-03T01:15:50;8.30;99.90
13817;DHT22;6979;52.116;5.286;2023-04-03T01:18:18;8.30;99.90
13817;DHT22;6979;52.116;5.286;2023-04-03T01:21:17;8.20;99.90
13817;DHT22;6979;52.116;5.286;2023-04-03T01:23:57;8.20;99.90
13817;DHT22;6979;52.116;5.286;2023-04-03T01:26:26;8.20;99.90
13817;DHT22;6979;52.116;5.286;2023-04-03T01:28:55;8.20;99.90
13817;DHT22;6979;52.116;5.286;2023-04-03T01:31:25;8.20;99.90
13817;DHT22;6979;52.116;5.286;2023-04-03T01:34:03;8.10;99.90
13817;DHT22;6979;52.116;5.286;2023-04-03T01:36:31;8.10;99.90
13817;DHT22;6979;52.116;5.286;2023-04-03T01:38:59;8.10;99.90
13817;DHT22;6979;52.116;5.286;2023-04-03T01:41:29;8.10;99.90
13817;DHT22;6979;52.116;5.286;2023-04-03T01:44:09;8.10;99.90
13817;DHT22;6979;52.116;5.286;2023-04-03T01:46:36;8.00;99.90
13817;DHT22;6979;52.116;5.286;2023-04-03T01:49:05;8.00;99.90
13817;DHT22;6979;52.116;5.286;2023-04-03T01:51:32;8.00;99.90
13817;DHT22;6979;52.116;5.286;2023-04-03T01:53:59;8.00;99.90
13817;DHT22;6979;52.116;5.286;2023-04-03T01:56:26;7.90;99.90
13817;DHT22;6979;52.116;5.286;2023-04-03T01:58:53;7.90;99.90
13817;DHT22;6979;52.116;5.286;2023-04-03T02:01:27;7.90;99.90
13817;DHT22;6979;52.116;5.286;2023-04-03T02:04:07;7.90;99.90
13817;DHT22;6979;52.116;5.286;2023-04-03T02:06:33;7.90;99.90
13817;DHT22;6979;52.116;5.286;2023-04-03T02:09:00;7.80;99.90
13817;DHT22;6979;52.116;5.286;2023-04-03T02:11:29;7.80;99.90
13817;DHT22;6979;52.116;5.286;2023-04-03T02:13:56;7.80;99.90
13817;DHT22;6979;52.116;5.286;2023-04-03T02:16:23;7.80;99.90
13817;DHT22;6979;52.116;5.286;2023-04-03T02:18:50;7.80;99.90
13817;DHT22;6979;52.116;5.286;2023-04-03T02:21:18;7.70;99.90
13817;DHT22;6979;52.116;5.286;2023-04-03T02:23:45;7.80;99.90
13817;DHT22;6979;52.116;5.286;2023-04-03T02:26:13;7.70;99.90
13817;DHT22;6979;52.116;5.286;2023-04-03T02:28:41;7.70;99.90
13817;DHT22;6979;52.116;5.286;2023-04-03T02:31:09;7.70;99.90
13817;DHT22;6979;52.116;5.286;2023-04-03T02:33:37;7.60;99.90
13817;DHT22;6979;52.116;5.286;2023-04-03T02:36:08;7.60;99.90
13817;DHT22;6979;52.116;5.286;2023-04-03T02:38:38;7.60;99.90
13817;DHT22;6979;52.116;5.286;2023-04-03T02:41:07;7.60;99.90
13817;DHT22;6979;52.116;5.286;2023-04-03T02:43:34;7.60;99.90
13817;DHT22;6979;52.116;5.286;2023-04-03T02:46:03;7.60;99.90
13817;DHT22;6979;52.116;5.286;2023-04-03T02:48:30;7.60;99.90
13817;DHT22;6979;52.116;5.286;2023-04-03T02:50:57;7.60;99.90
13817;DHT22;6979;52.116;5.286;2023-04-03T02:53:24;7.50;99.90
13817;DHT22;6979;52.116;5.286;2023-04-03T02:55:53;7.50;99.90
13817;DHT22;6979;52.116;5.286;2023-04-03T02:58:19;7.50;99.90
13817;DHT22;6979;52.116;5.286;2023-04-03T03:00:46;7.50;99.90
13817;DHT22;6979;52.116;5.286;2023-04-03T03:03:13;7.50;99.90
13817;DHT22;6979;52.116;5.286;2023-04-03T03:05:40;7.50;99.90
13817;DHT22;6979;52.116;5.286;2023-04-03T03:08:07;7.40;99.90
13817;DHT22;6979;52.116;5.286;2023-04-03T03:10:34;7.40;99.90
13817;DHT22;6979;52.116;5.286;2023-04-03T03:13:02;7.40;99.90
13817;DHT22;6979;52.116;5.286;2023-04-03T03:15:29;7.40;99.90
13817;DHT22;6979;52.116;5.286;2023-04-03T03:17:56;7.30;99.90
13817;DHT22;6979;52.116;5.286;2023-04-03T03:20:23;7.30;99.90
13817;DHT22;6979;52.116;5.286;2023-04-03T03:22:50;7.30;99.90
13817;DHT22;6979;52.116;5.286;2023-04-03T03:25:17;7.30;99.90
13817;DHT22;6979;52.116;5.286;2023-04-03T03:27:44;7.20;99.90
13817;DHT22;6979;52.116;5.286;2023-04-03T03:30:12;7.20;99.90
13817;DHT22;6979;52.116;5.286;2023-04-03T03:32:40;7.20;99.90
13817;DHT22;6979;52.116;5.286;2023-04-03T03:35:07;7.20;99.90
13817;DHT22;6979;52.116;5.286;2023-04-03T03:37:34;7.20;99.90
13817;DHT22;6979;52.116;5.286;2023-04-03T03:40:01;7.10;99.90
13817;DHT22;6979;52.116;5.286;2023-04-03T03:42:29;7.10;99.90
13817;DHT22;6979;52.116;5.286;2023-04-03T03:44:56;7.10;99.90
13817;DHT22;6979;52.116;5.286;2023-04-03T03:47:25;7.10;99.90
13817;DHT22;6979;52.116;5.286;2023-04-03T03:49:52;7.10;99.90
13817;DHT22;6979;52.116;5.286;2023-04-03T03:52:19;7.00;99.90
13817;DHT22;6979;52.116;5.286;2023-04-03T03:54:46;7.00;99.90
13817;DHT22;6979;52.116;5.286;2023-04-03T03:57:14;7.00;99.90
13817;DHT22;6979;52.116;5.286;2023-04-03T03:59:41;7.00;99.90
13817;DHT22;6979;52.116;5.286;2023-04-03T04:02:10;7.00;99.90
13817;DHT22;6979;52.116;5.286;2023-04-03T04:04:38;6.90;99.90
13817;DHT22;6979;52.116;5.286;2023-04-03T04:07:05;6.90;99.90
13817;DHT22;6979;52.116;5.286;2023-04-03T04:09:33;6.90;99.90
13817;DHT22;6979;52.116;5.286;2023-04-03T04:12:00;6.90;99.90
13817;DHT22;6979;52.116;5.286;2023-04-03T04:14:29;6.90;99.90
13817;DHT22;6979;52.116;5.286;2023-04-03T04:16:56;6.90;99.90
13817;DHT22;6979;52.116;5.286;2023-04-03T04:19:25;6.80;99.90
13817;DHT22;6979;52.116;5.286;2023-04-03T04:21:53;6.80;99.90
13817;DHT22;6979;52.116;5.286;2023-04-03T04:24:23;6.80;99.90
13817;DHT22;6979;52.116;5.286;2023-04-03T04:26:53;6.80;99.90
13817;DHT22;6979;52.116;5.286;2023-04-03T04:29:21;6.80;99.90
13817;DHT22;6979;52.116;5.286;2023-04-03T04:31:50;6.80;99.90
13817;DHT22;6979;52.116;5.286;2023-04-03T04:34:17;6.70;99.90
13817;DHT22;6979;52.116;5.286;2023-04-03T04:36:44;6.70;99.90
13817;DHT22;6979;52.116;5.286;2023-04-03T04:39:13;6.70;99.90
13817;DHT22;6979;52.116;5.286;2023-04-03T04:41:40;6.70;99.90
13817;DHT22;6979;52.116;5.286;2023-04-03T04:44:08;6.70;99.90
13817;DHT22;6979;52.116;5.286;2023-04-03T04:46:35;6.70;99.90
13817;DHT22;6979;52.116;5.286;2023-04-03T04:49:03;6.60;99.90
13817;DHT22;6979;52.116;5.286;2023-04-03T04:51:31;6.60;99.90
13817;DHT22;6979;52.116;5.286;2023-04-03T04:53:58;6.60;99.90
13817;DHT22;6979;52.116;5.286;2023-04-03T04:56:26;6.60;99.90
13817;DHT22;6979;52.116;5.286;2023-04-03T04:58:55;6.60;99.90
13817;DHT22;6979;52.116;5.286;2023-04-03T05:01:23;6.50;99.90
13817;DHT22;6979;52.116;5.286;2023-04-03T05:03:57;6.50;99.90
13817;DHT22;6979;52.116;5.286;2023-04-03T05:06:24;6.50;99.90
13817;DHT22;6979;52.116;5.286;2023-04-03T05:08:52;6.50;99.90
13817;DHT22;6979;52.116;5.286;2023-04-03T05:11:20;6.40;99.90
13817;DHT22;6979;52.116;5.286;2023-04-03T05:13:51;6.40;99.90
13817;DHT22;6979;52.116;5.286;2023-04-03T05:16:18;6.40;99.90
13817;DHT22;6979;52.116;5.286;2023-04-03T05:18:45;6.40;99.90
13817;DHT22;6979;52.116;5.286;2023-04-03T05:21:17;6.40;99.90
13817;DHT22;6979;52.116;5.286;2023-04-03T05:23:46;6.40;99.90
13817;DHT22;6979;52.116;5.286;2023-04-03T05:26:13;6.30;99.90
13817;DHT22;6979;52.116;5.286;2023-04-03T05:28:42;6.40;99.90
13817;DHT22;6979;52.116;5.286;2023-04-03T05:31:11;6.30;99.90
13817;DHT22;6979;52.116;5.286;2023-04-03T05:33:39;6.30;99.90
13817;DHT22;6979;52.116;5.286;2023-04-03T05:36:09;6.30;99.90
13817;DHT22;6979;52.116;5.286;2023-04-03T05:38:42;6.30;99.90
13817;DHT22;6979;52.116;5.286;2023-04-03T05:41:09;6.30;99.90
13817;DHT22;6979;52.116;5.286;2023-04-03T05:43:36;6.30;99.90
13817;DHT22;6979;52.116;5.286;2023-04-03T05:46:11;6.30;99.90
13817;DHT22;6979;52.116;5.286;2023-04-03T05:48:39;6.20;99.90
13817;DHT22;6979;52.116;5.286;2023-04-03T05:51:14;6.30;99.90
13817;DHT22;6979;52.116;5.286;2023-04-03T05:53:42;6.30;99.90
13817;DHT22;6979;52.116;5.286;2023-04-03T05:56:10;6.30;99.90
13817;DHT22;6979;52.116;5.286;2023-04-03T05:58:39;6.30;99.90
13817;DHT22;6979;52.116;5.286;2023-04-03T06:01:06;6.30;99.90
13817;DHT22;6979;52.116;5.286;2023-04-03T06:03:35;6.30;99.90
13817;DHT22;6979;52.116;5.286;2023-04-03T06:06:04;6.30;99.90
13817;DHT22;6979;52.116;5.286;2023-04-03T06:08:31;6.30;99.90
13817;DHT22;6979;52.116;5.286;2023-04-03T06:10:58;6.30;99.90
13817;DHT22;6979;52.116;5.286;2023-04-03T06:13:26;6.30;99.90
13817;DHT22;6979;52.116;5.286;2023-04-03T06:15:54;6.30;99.90
13817;DHT22;6979;52.116;5.286;2023-04-03T06:18:21;6.30;99.90
13817;DHT22;6979;52.116;5.286;2023-04-03T06:20:50;6.40;99.90
13817;DHT22;6979;52.116;5.286;2023-04-03T06:23:17;6.40;99.90
13817;DHT22;6979;52.116;5.286;2023-04-03T06:25:43;6.40;99.90
13817;DHT22;6979;52.116;5.286;2023-04-03T06:28:10;6.40;99.90
13817;DHT22;6979;52.116;5.286;2023-04-03T06:30:37;6.50;99.90
13817;DHT22;6979;52.116;5.286;2023-04-03T06:33:04;6.50;99.90
13817;DHT22;6979;52.116;5.286;2023-04-03T06:35:31;6.60;99.90
13817;DHT22;6979;52.116;5.286;2023-04-03T06:38:01;6.60;99.90
13817;DHT22;6979;52.116;5.286;2023-04-03T06:40:30;6.60;99.90
13817;DHT22;6979;52.116;5.286;2023-04-03T06:42:57;6.70;99.90
13817;DHT22;6979;52.116;5.286;2023-04-03T06:45:23;6.70;99.90
13817;DHT22;6979;52.116;5.286;2023-04-03T06:47:51;6.80;99.90
13817;DHT22;6979;52.116;5.286;2023-04-03T06:50:18;6.80;99.90
13817;DHT22;6979;52.116;5.286;2023-04-03T06:52:45;6.80;99.90
13817;DHT22;6979;52.116;5.286;2023-04-03T06:55:13;6.90;99.90
13817;DHT22;6979;52.116;5.286;2023-04-03T06:57:40;6.90;99.90
13817;DHT22;6979;52.116;5.286;2023-04-03T07:00:10;7.00;99.90
13817;DHT22;6979;52.116;5.286;2023-04-03T07:02:37;7.00;99.90
13817;DHT22;6979;52.116;5.286;2023-04-03T07:05:04;7.10;99.90
13817;DHT22;6979;52.116;5.286;2023-04-03T07:07:32;7.10;99.90
13817;DHT22;6979;52.116;5.286;2023-04-03T07:10:01;7.20;99.90
13817;DHT22;6979;52.116;5.286;2023-04-03T07:12:30;7.20;99.90
13817;DHT22;6979;52.116;5.286;2023-04-03T07:14:56;7.30;99.90
13817;DHT22;6979;52.116;5.286;2023-04-03T07:17:23;7.30;99.90
13817;DHT22;6979;52.116;5.286;2023-04-03T07:19:51;7.40;99.90
13817;DHT22;6979;52.116;5.286;2023-04-03T07:22:18;7.50;99.90
13817;DHT22;6979;52.116;5.286;2023-04-03T07:24:45;7.50;99.90
13817;DHT22;6979;52.116;5.286;2023-04-03T07:27:12;7.60;99.90
13817;DHT22;6979;52.116;5.286;2023-04-03T07:29:40;7.60;99.90
13817;DHT22;6979;52.116;5.286;2023-04-03T07:32:08;7.70;99.90
13817;DHT22;6979;52.116;5.286;2023-04-03T07:34:35;7.70;99.90
13817;DHT22;6979;52.116;5.286;2023-04-03T07:37:02;7.80;99.90
13817;DHT22;6979;52.116;5.286;2023-04-03T07:39:30;7.80;99.90
13817;DHT22;6979;52.116;5.286;2023-04-03T07:41:57;7.90;99.90
13817;DHT22;6979;52.116;5.286;2023-04-03T07:44:24;7.90;99.90
13817;DHT22;6979;52.116;5.286;2023-04-03T07:46:53;8.00;99.90
13817;DHT22;6979;52.116;5.286;2023-04-03T07:49:21;8.00;99.90
13817;DHT22;6979;52.116;5.286;2023-04-03T07:51:48;8.10;99.90
13817;DHT22;6979;52.116;5.286;2023-04-03T07:54:15;8.20;99.90
13817;DHT22;6979;52.116;5.286;2023-04-03T07:56:43;8.20;99.90
13817;DHT22;6979;52.116;5.286;2023-04-03T07:59:10;8.30;99.90
13817;DHT22;6979;52.116;5.286;2023-04-03T08:01:37;8.30;99.90
13817;DHT22;6979;52.116;5.286;2023-04-03T08:04:06;8.40;99.90
13817;DHT22;6979;52.116;5.286;2023-04-03T08:06:33;8.40;99.90
13817;DHT22;6979;52.116;5.286;2023-04-03T08:09:02;8.50;99.90
13817;DHT22;6979;52.116;5.286;2023-04-03T08:11:30;8.60;99.90
13817;DHT22;6979;52.116;5.286;2023-04-03T08:13:57;8.70;99.90
13817;DHT22;6979;52.116;5.286;2023-04-03T08:16:24;8.70;99.90
13817;DHT22;6979;52.116;5.286;2023-04-03T08:18:53;8.80;99.90
13817;DHT22;6979;52.116;5.286;2023-04-03T08:21:22;8.80;99.90
13817;DHT22;6979;52.116;5.286;2023-04-03T08:23:50;8.90;99.90
13817;DHT22;6979;52.116;5.286;2023-04-03T08:26:19;8.90;99.90
13817;DHT22;6979;52.116;5.286;2023-04-03T08:28:46;9.00;99.90
13817;DHT22;6979;52.116;5.286;2023-04-03T08:31:16;9.10;99.90
13817;DHT22;6979;52.116;5.286;2023-04-03T08:33:44;9.10;99.90
13817;DHT22;6979;52.116;5.286;2023-04-03T08:36:18;9.20;99.90
13817;DHT22;6979;52.116;5.286;2023-04-03T08:38:48;9.30;99.90
13817;DHT22;6979;52.116;5.286;2023-04-03T08:41:18;9.30;99.90
13817;DHT22;6979;52.116;5.286;2023-04-03T08:43:56;9.40;99.90
13817;DHT22;6979;52.116;5.286;2023-04-03T08:46:34;9.50;99.90
13817;DHT22;6979;52.116;5.286;2023-04-03T08:49:04;9.50;99.90
13817;DHT22;6979;52.116;5.286;2023-04-03T08:51:59;9.60;99.90
13817;DHT22;6979;52.116;5.286;2023-04-03T08:54:31;9.70;99.90
13817;DHT22;6979;52.116;5.286;2023-04-03T08:57:02;9.80;99.90
13817;DHT22;6979;52.116;5.286;2023-04-03T08:59:33;9.80;99.90
13817;DHT22;6979;52.116;5.286;2023-04-03T09:02:04;9.90;99.90
13817;DHT22;6979;52.116;5.286;2023-04-03T09:04:40;9.90;99.90
13817;DHT22;6979;52.116;5.286;2023-04-03T09:07:13;10.00;99.90
13817;DHT22;6979;52.116;5.286;2023-04-03T09:09:44;10.10;99.90
13817;DHT22;6979;52.116;5.286;2023-04-03T09:12:19;10.20;99.90
13817;DHT22;6979;52.116;5.286;2023-04-03T09:14:57;10.40;99.90
13817;DHT22;6979;52.116;5.286;2023-04-03T09:17:36;10.80;99.90
13817;DHT22;6979;52.116;5.286;2023-04-03T09:20:16;11.50;99.90
13817;DHT22;6979;52.116;5.286;2023-04-03T09:22:44;12.20;99.90
13817;DHT22;6979;52.116;5.286;2023-04-03T09:25:15;12.90;99.90
13817;DHT22;6979;52.116;5.286;2023-04-03T09:27:44;13.60;99.90
13817;DHT22;6979;52.116;5.286;2023-04-03T09:30:13;14.30;99.90
13817;DHT22;6979;52.116;5.286;2023-04-03T09:32:44;15.10;99.90
13817;DHT22;6979;52.116;5.286;2023-04-03T09:35:20;15.70;99.90
13817;DHT22;6979;52.116;5.286;2023-04-03T09:37:49;16.40;99.90
13817;DHT22;6979;52.116;5.286;2023-04-03T09:40:33;17.10;99.90
13817;DHT22;6979;52.116;5.286;2023-04-03T09:43:21;17.90;99.90
13817;DHT22;6979;52.116;5.286;2023-04-03T09:45:50;18.60;99.10
13817;DHT22;6979;52.116;5.286;2023-04-03T09:48:18;19.10;99.00
13817;DHT22;6979;52.116;5.286;2023-04-03T09:50:55;19.70;97.30
13817;DHT22;6979;52.116;5.286;2023-04-03T09:53:33;20.30;95.60
13817;DHT22;6979;52.116;5.286;2023-04-03T09:56:03;20.80;95.80
13817;DHT22;6979;52.116;5.286;2023-04-03T09:58:32;21.30;94.50
13817;DHT22;6979;52.116;5.286;2023-04-03T10:01:02;21.70;94.80
13817;DHT22;6979;52.116;5.286;2023-04-03T10:03:31;22.20;94.30
13817;DHT22;6979;52.116;5.286;2023-04-03T10:05:59;22.60;92.90
13817;DHT22;6979;52.116;5.286;2023-04-03T10:08:29;23.00;92.60
13817;DHT22;6979;52.116;5.286;2023-04-03T10:11:09;23.40;90.50
13817;DHT22;6979;52.116;5.286;2023-04-03T10:13:50;23.70;90.90
13817;DHT22;6979;52.116;5.286;2023-04-03T10:16:20;24.10;89.50
13817;DHT22;6979;52.116;5.286;2023-04-03T10:18:54;24.30;89.80
13817;DHT22;6979;52.116;5.286;2023-04-03T10:21:33;24.60;86.50
13817;DHT22;6979;52.116;5.286;2023-04-03T10:24:10;24.90;83.00
13817;DHT22;6979;52.116;5.286;2023-04-03T10:26:46;25.10;80.30
13817;DHT22;6979;52.116;5.286;2023-04-03T10:29:22;25.20;80.70
13817;DHT22;6979;52.116;5.286;2023-04-03T10:31:55;25.40;79.30
13817;DHT22;6979;52.116;5.286;2023-04-03T10:34:29;25.40;80.80
13817;DHT22;6979;52.116;5.286;2023-04-03T10:37:04;25.50;79.40
13817;DHT22;6979;52.116;5.286;2023-04-03T10:39:36;25.60;78.90
13817;DHT22;6979;52.116;5.286;2023-04-03T10:42:13;25.70;78.50
13817;DHT22;6979;52.116;5.286;2023-04-03T10:44:52;25.80;75.00
13817;DHT22;6979;52.116;5.286;2023-04-03T10:47:24;25.80;72.90
13817;DHT22;6979;52.116;5.286;2023-04-03T10:49:58;25.70;73.40
13817;DHT22;6979;52.116;5.286;2023-04-03T10:52:31;25.60;72.40
13817;DHT22;6979;52.116;5.286;2023-04-03T10:55:09;25.50;73.50
13817;DHT22;6979;52.116;5.286;2023-04-03T10:57:41;25.40;71.50
13817;DHT22;6979;52.116;5.286;2023-04-03T11:00:15;25.40;71.70
13817;DHT22;6979;52.116;5.286;2023-04-03T11:02:49;25.30;71.30
13817;DHT22;6979;52.116;5.286;2023-04-03T11:05:22;25.20;71.30
13817;DHT22;6979;52.116;5.286;2023-04-03T11:07:53;25.20;72.40
13817;DHT22;6979;52.116;5.286;2023-04-03T11:10:35;25.10;74.20
13817;DHT22;6979;52.116;5.286;2023-04-03T11:13:10;25.20;72.40
13817;DHT22;6979;52.116;5.286;2023-04-03T11:15:38;25.20;70.90
13817;DHT22;6979;52.116;5.286;2023-04-03T11:18:09;25.30;71.90
13817;DHT22;6979;52.116;5.286;2023-04-03T11:20:38;25.30;71.10
13817;DHT22;6979;52.116;5.286;2023-04-03T11:23:13;25.20;69.90
13817;DHT22;6979;52.116;5.286;2023-04-03T11:25:42;25.10;69.50
13817;DHT22;6979;52.116;5.286;2023-04-03T11:28:13;25.00;70.70
13817;DHT22;6979;52.116;5.286;2023-04-03T11:30:45;24.90;72.10
13817;DHT22;6979;52.116;5.286;2023-04-03T11:33:28;24.80;72.40
13817;DHT22;6979;52.116;5.286;2023-04-03T11:35:59;24.70;71.80
13817;DHT22;6979;52.116;5.286;2023-04-03T11:38:30;24.70;73.20
13817;DHT22;6979;52.116;5.286;2023-04-03T11:41:00;24.70;70.40
13817;DHT22;6979;52.116;5.286;2023-04-03T11:43:30;24.60;72.60
13817;DHT22;6979;52.116;5.286;2023-04-03T11:45:59;24.50;71.50
13817;DHT22;6979;52.116;5.286;2023-04-03T11:48:49;24.40;71.20
13817;DHT22;6979;52.116;5.286;2023-04-03T11:51:44;24.30;72.00
13817;DHT22;6979;52.116;5.286;2023-04-03T11:57:46;24.20;72.20
13817;DHT22;6979;52.116;5.286;2023-04-03T12:00:50;24.10;73.30
13817;DHT22;6979;52.116;5.286;2023-04-03T12:04:03;24.10;72.80
13817;DHT22;6979;52.116;5.286;2023-04-03T12:07:00;24.00;73.70
13817;DHT22;6979;52.116;5.286;2023-04-03T12:12:35;23.90;72.10
13817;DHT22;6979;52.116;5.286;2023-04-03T12:15:50;23.90;72.90
13817;DHT22;6979;52.116;5.286;2023-04-03T12:18:41;23.80;68.70
13817;DHT22;6979;52.116;5.286;2023-04-03T12:21:09;23.70;71.30
13817;DHT22;6979;52.116;5.286;2023-04-03T12:23:37;23.60;71.20
13817;DHT22;6979;52.116;5.286;2023-04-03T12:26:24;23.50;73.10
13817;DHT22;6979;52.116;5.286;2023-04-03T12:28:53;23.40;71.00
13817;DHT22;6979;52.116;5.286;2023-04-03T12:31:24;23.40;71.20
13817;DHT22;6979;52.116;5.286;2023-04-03T12:34:17;23.30;70.70
13817;DHT22;6979;52.116;5.286;2023-04-03T12:36:52;23.30;69.60
13817;DHT22;6979;52.116;5.286;2023-04-03T12:39:33;23.20;69.30
13817;DHT22;6979;52.116;5.286;2023-04-03T12:42:16;23.20;69.70
13817;DHT22;6979;52.116;5.286;2023-04-03T12:44:52;23.10;69.90
13817;DHT22;6979;52.116;5.286;2023-04-03T12:47:28;23.10;70.20
13817;DHT22;6979;52.116;5.286;2023-04-03T12:50:00;23.00;69.00
13817;DHT22;6979;52.116;5.286;2023-04-03T12:52:35;23.00;70.10
13817;DHT22;6979;52.116;5.286;2023-04-03T12:55:13;23.00;69.50
13817;DHT22;6979;52.116;5.286;2023-04-03T12:57:40;22.90;70.00
13817;DHT22;6979;52.116;5.286;2023-04-03T13:00:38;22.90;70.10
13817;DHT22;6979;52.116;5.286;2023-04-03T13:03:06;22.90;69.20
13817;DHT22;6979;52.116;5.286;2023-04-03T13:05:47;22.90;69.00
13817;DHT22;6979;52.116;5.286;2023-04-03T13:08:14;22.80;70.00
13817;DHT22;6979;52.116;5.286;2023-04-03T13:10:52;22.80;70.00
13817;DHT22;6979;52.116;5.286;2023-04-03T13:13:19;22.70;68.90
13817;DHT22;6979;52.116;5.286;2023-04-03T13:15:47;22.70;69.00
13817;DHT22;6979;52.116;5.286;2023-04-03T13:18:27;22.70;69.90
13817;DHT22;6979;52.116;5.286;2023-04-03T13:21:00;22.70;70.40
13817;DHT22;6979;52.116;5.286;2023-04-03T13:23:28;22.80;68.80
13817;DHT22;6979;52.116;5.286;2023-04-03T13:25:56;22.80;71.00
13817;DHT22;6979;52.116;5.286;2023-04-03T13:28:27;22.90;71.20
13817;DHT22;6979;52.116;5.286;2023-04-03T13:30:56;23.00;69.70
13817;DHT22;6979;52.116;5.286;2023-04-03T13:33:28;23.10;71.30
13817;DHT22;6979;52.116;5.286;2023-04-03T13:36:18;23.20;69.20
13817;DHT22;6979;52.116;5.286;2023-04-03T13:39:01;23.20;68.50
13817;DHT22;6979;52.116;5.286;2023-04-03T13:41:30;23.20;68.80
13817;DHT22;6979;52.116;5.286;2023-04-03T13:46:59;23.30;68.60
13817;DHT22;6979;52.116;5.286;2023-04-03T13:49:33;23.30;69.80
13817;DHT22;6979;52.116;5.286;2023-04-03T13:52:17;23.40;69.50
13817;DHT22;6979;52.116;5.286;2023-04-03T13:54:54;23.40;68.20
13817;DHT22;6979;52.116;5.286;2023-04-03T13:57:22;23.40;68.50
13817;DHT22;6979;52.116;5.286;2023-04-03T13:59:54;23.50;68.90
13817;DHT22;6979;52.116;5.286;2023-04-03T14:02:28;23.40;66.50
13817;DHT22;6979;52.116;5.286;2023-04-03T14:04:57;23.40;68.40
13817;DHT22;6979;52.116;5.286;2023-04-03T14:07:28;23.40;67.90
13817;DHT22;6979;52.116;5.286;2023-04-03T14:09:56;23.40;68.40
13817;DHT22;6979;52.116;5.286;2023-04-03T14:12:26;23.40;69.30
13817;DHT22;6979;52.116;5.286;2023-04-03T14:14:54;23.50;68.50
13817;DHT22;6979;52.116;5.286;2023-04-03T14:17:25;23.50;69.40
13817;DHT22;6979;52.116;5.286;2023-04-03T14:19:55;23.60;68.20
13817;DHT22;6979;52.116;5.286;2023-04-03T14:22:30;23.70;66.90
13817;DHT22;6979;52.116;5.286;2023-04-03T14:24:58;23.70;65.90
13817;DHT22;6979;52.116;5.286;2023-04-03T14:27:27;23.70;66.50
13817;DHT22;6979;52.116;5.286;2023-04-03T14:29:55;23.60;66.70
13817;DHT22;6979;52.116;5.286;2023-04-03T14:32:23;23.60;66.90
13817;DHT22;6979;52.116;5.286;2023-04-03T14:34:54;23.50;66.70
13817;DHT22;6979;52.116;5.286;2023-04-03T14:37:23;23.50;66.70
13817;DHT22;6979;52.116;5.286;2023-04-03T14:39:55;23.50;66.10
13817;DHT22;6979;52.116;5.286;2023-04-03T14:42:25;23.50;67.30
13817;DHT22;6979;52.116;5.286;2023-04-03T14:44:53;23.50;67.20
13817;DHT22;6979;52.116;5.286;2023-04-03T14:47:21;23.50;66.70
13817;DHT22;6979;52.116;5.286;2023-04-03T14:49:49;23.50;67.50
13817;DHT22;6979;52.116;5.286;2023-04-03T14:52:20;23.50;67.10
13817;DHT22;6979;52.116;5.286;2023-04-03T14:54:48;23.50;66.50
13817;DHT22;6979;52.116;5.286;2023-04-03T14:57:16;23.40;66.30
13817;DHT22;6979;52.116;5.286;2023-04-03T14:59:44;23.20;65.80
13817;DHT22;6979;52.116;5.286;2023-04-03T15:02:25;23.10;66.00
13817;DHT22;6979;52.116;5.286;2023-04-03T15:04:52;22.90;64.80
13817;DHT22;6979;52.116;5.286;2023-04-03T15:07:19;22.80;66.50
13817;DHT22;6979;52.116;5.286;2023-04-03T15:09:46;22.60;68.20
13817;DHT22;6979;52.116;5.286;2023-04-03T15:12:13;22.60;69.10
13817;DHT22;6979;52.116;5.286;2023-04-03T15:14:42;22.60;69.20
13817;DHT22;6979;52.116;5.286;2023-04-03T15:17:13;22.70;69.00
13817;DHT22;6979;52.116;5.286;2023-04-03T15:19:41;22.80;68.70
13817;DHT22;6979;52.116;5.286;2023-04-03T15:22:14;22.90;68.60
13817;DHT22;6979;52.116;5.286;2023-04-03T15:24:41;22.90;68.60
13817;DHT22;6979;52.116;5.286;2023-04-03T15:27:09;22.90;67.60
13817;DHT22;6979;52.116;5.286;2023-04-03T15:29:36;22.90;68.20
13817;DHT22;6979;52.116;5.286;2023-04-03T15:32:06;22.90;68.30
13817;DHT22;6979;52.116;5.286;2023-04-03T15:34:34;22.90;67.90
13817;DHT22;6979;52.116;5.286;2023-04-03T15:37:02;22.90;67.80
13817;DHT22;6979;52.116;5.286;2023-04-03T15:39:30;22.80;68.60
13817;DHT22;6979;52.116;5.286;2023-04-03T15:41:58;22.80;68.60
13817;DHT22;6979;52.116;5.286;2023-04-03T15:44:32;22.90;68.70
13817;DHT22;6979;52.116;5.286;2023-04-03T15:47:00;22.80;67.80
13817;DHT22;6979;52.116;5.286;2023-04-03T15:49:29;22.80;67.90
13817;DHT22;6979;52.116;5.286;2023-04-03T15:51:56;22.80;67.90
13817;DHT22;6979;52.116;5.286;2023-04-03T15:54:23;22.70;67.60
13817;DHT22;6979;52.116;5.286;2023-04-03T15:56:51;22.60;66.60
13817;DHT22;6979;52.116;5.286;2023-04-03T15:59:19;22.60;67.50
13817;DHT22;6979;52.116;5.286;2023-04-03T16:01:46;22.40;67.00
13817;DHT22;6979;52.116;5.286;2023-04-03T16:04:13;22.20;67.60
13817;DHT22;6979;52.116;5.286;2023-04-03T16:06:41;22.10;68.00
13817;DHT22;6979;52.116;5.286;2023-04-03T16:09:09;22.00;67.80
13817;DHT22;6979;52.116;5.286;2023-04-03T16:11:36;21.90;68.00
13817;DHT22;6979;52.116;5.286;2023-04-03T16:14:05;21.80;69.00
13817;DHT22;6979;52.116;5.286;2023-04-03T16:16:32;21.70;68.40
13817;DHT22;6979;52.116;5.286;2023-04-03T16:18:59;21.60;69.00
13817;DHT22;6979;52.116;5.286;2023-04-03T16:21:27;21.50;69.00
13817;DHT22;6979;52.116;5.286;2023-04-03T16:23:57;21.40;69.70
13817;DHT22;6979;52.116;5.286;2023-04-03T16:26:25;21.30;69.20